createdAt,value
2019-02-26T00:00:42.332Z,7.13
2019-02-26T00:03:28.628Z,7.57
2019-02-26T00:06:19.013Z,6.50
2019-02-26T00:09:09.946Z,9.33
2019-02-26T00:11:58.394Z,12.03
2019-02-26T00:14:47.566Z,10.10
2019-02-26T00:17:40.536Z,9.93
2019-02-26T00:20:26.548Z,10.70
2019-02-26T00:23:14.975Z,10.47
2019-02-26T00:26:03.504Z,8.07
2019-02-26T00:28:36.594Z,12.50
2019-02-26T00:31:26.139Z,11.50
2019-02-26T00:34:16.749Z,12.13
2019-02-26T00:37:06.311Z,13.33
2019-02-26T00:39:56.380Z,15.73
2019-02-26T00:42:44.516Z,12.30
2019-02-26T00:45:34.137Z,14.43
2019-02-26T00:48:22.839Z,8.53
2019-02-26T00:51:11.067Z,10.90
2019-02-26T00:54:00.303Z,11.30
2019-02-26T00:56:49.435Z,6.70
2019-02-26T00:59:38.914Z,8.50
2019-02-26T01:02:27.707Z,7.97
2019-02-26T01:05:16.543Z,9.57
2019-02-26T01:08:06.452Z,7.27
2019-02-26T01:10:56.953Z,8.70
2019-02-26T01:13:44.423Z,7.60
2019-02-26T01:16:32.877Z,6.87
2019-02-26T01:19:21.297Z,7.20
2019-02-26T01:22:09.513Z,8.40
2019-02-26T01:24:58.426Z,8.60
2019-02-26T01:27:48.335Z,9.40
2019-02-26T01:30:36.405Z,6.60
2019-02-26T01:33:25.093Z,8.93
2019-02-26T01:36:16.301Z,7.50
2019-02-26T01:39:09.331Z,11.30
2019-02-26T01:41:58.801Z,9.73
2019-02-26T01:44:47.295Z,10.03
2019-02-26T01:47:40.356Z,9.97
2019-02-26T01:50:30.616Z,8.83
2019-02-26T01:53:19.794Z,9.00
2019-02-26T01:56:08.495Z,7.77
2019-02-26T01:59:02.120Z,9.50
2019-02-26T02:01:49.657Z,9.50
2019-02-26T02:04:39.334Z,8.93
2019-02-26T02:07:28.872Z,9.23
2019-02-26T02:10:17.424Z,8.90
2019-02-26T02:13:07.079Z,8.63
2019-02-26T02:15:57.539Z,7.60
2019-02-26T02:18:48.084Z,10.07
2019-02-26T02:21:37.184Z,7.83
2019-02-26T02:24:25.529Z,13.87
2019-02-26T02:27:17.530Z,12.07
2019-02-26T02:29:46.112Z,9.90
2019-02-26T02:32:35.966Z,8.77
2019-02-26T02:35:23.937Z,10.50
2019-02-26T02:38:12.054Z,7.67
2019-02-26T02:41:00.332Z,8.67
2019-02-26T02:43:48.771Z,7.97
2019-02-26T02:46:39.191Z,9.43
2019-02-26T02:49:29.215Z,7.30
2019-02-26T02:52:16.988Z,8.73
2019-02-26T02:55:06.995Z,8.97
2019-02-26T02:57:58.456Z,9.70
2019-02-26T03:00:48.489Z,10.80
2019-02-26T03:03:36.432Z,10.70
2019-02-26T03:06:27.288Z,7.90
2019-02-26T03:09:17.202Z,10.13
2019-02-26T03:12:04.690Z,8.53
2019-02-26T03:14:52.719Z,11.90
2019-02-26T03:17:41.061Z,8.83
2019-02-26T03:20:31.358Z,10.80
2019-02-26T03:23:20.045Z,8.13
2019-02-26T03:26:12.609Z,9.80
2019-02-26T03:28:57.945Z,9.33
2019-02-26T03:31:53.544Z,10.40
2019-02-26T03:34:35.982Z,10.60
2019-02-26T03:37:25.846Z,10.17
2019-02-26T03:40:15.070Z,8.87
2019-02-26T03:43:07.474Z,8.27
2019-02-26T03:45:54.737Z,7.93
2019-02-26T03:48:43.072Z,8.83
2019-02-26T03:51:31.513Z,9.00
2019-02-26T03:54:19.592Z,7.70
2019-02-26T03:57:08.999Z,11.03
2019-02-26T03:59:59.530Z,8.90
2019-02-26T04:02:50.953Z,9.97
2019-02-26T04:05:39.203Z,9.00
2019-02-26T04:08:30.388Z,8.70
2019-02-26T04:11:27.769Z,10.50
2019-02-26T04:14:19.953Z,11.87
2019-02-26T04:17:09.012Z,7.80
2019-02-26T04:19:57.181Z,8.10
2019-02-26T04:22:49.004Z,9.93
2019-02-26T04:25:52.110Z,12.83
2019-02-26T04:28:49.157Z,8.47
2019-02-26T04:31:31.925Z,10.00
2019-02-26T04:34:31.693Z,9.60
2019-02-26T04:37:32.752Z,8.80
2019-02-26T04:40:30.279Z,8.73
2019-02-26T04:43:21.275Z,12.60
2019-02-26T04:46:18.374Z,10.00
2019-02-26T04:49:06.858Z,9.17
2019-02-26T04:51:55.125Z,11.50
2019-02-26T04:54:43.376Z,8.13
2019-02-26T04:57:31.481Z,10.83
2019-02-26T05:00:19.692Z,8.40
2019-02-26T05:03:08.643Z,13.10
2019-02-26T05:06:00.154Z,7.27
2019-02-26T05:08:47.769Z,8.50
2019-02-26T05:11:40.398Z,8.17
2019-02-26T05:14:25.929Z,8.93
2019-02-26T05:17:14.205Z,6.93
2019-02-26T05:20:08.757Z,6.97
2019-02-26T05:22:58.480Z,7.00
2019-02-26T05:25:45.720Z,9.53
2019-02-26T05:28:37.662Z,11.37
2019-02-26T05:31:24.007Z,8.93
2019-02-26T05:34:14.770Z,9.60
2019-02-26T05:37:04.352Z,9.23
2019-02-26T05:39:54.619Z,11.03
2019-02-26T05:42:41.632Z,11.10
2019-02-26T05:45:32.207Z,7.87
2019-02-26T05:48:21.288Z,10.50
2019-02-26T05:51:11.459Z,12.83
2019-02-26T05:54:02.173Z,7.50
2019-02-26T05:56:49.939Z,8.87
2019-02-26T05:59:38.240Z,9.53
2019-02-26T06:02:26.834Z,9.73
2019-02-26T06:05:17.677Z,10.27
2019-02-26T06:08:05.287Z,11.13
2019-02-26T06:10:53.417Z,7.17
2019-02-26T06:13:43.219Z,11.50
2019-02-26T06:16:31.534Z,6.37
2019-02-26T06:19:22.709Z,9.70
2019-02-26T06:22:14.440Z,11.20
2019-02-26T06:25:07.089Z,12.73
2019-02-26T06:27:51.158Z,10.47
2019-02-26T06:30:39.298Z,9.90
2019-02-26T06:33:31.711Z,9.20
2019-02-26T06:36:18.599Z,9.33
2019-02-26T06:39:07.949Z,7.03
2019-02-26T06:41:56.372Z,7.80
2019-02-26T06:44:47.159Z,9.60
2019-02-26T06:47:34.475Z,10.17
2019-02-26T06:50:22.422Z,8.53
2019-02-26T06:53:11.056Z,9.13
2019-02-26T06:56:01.549Z,12.07
2019-02-26T06:58:58.361Z,6.80
2019-02-26T07:01:55.584Z,11.57
2019-02-26T07:04:41.561Z,7.63
2019-02-26T07:07:35.749Z,8.50
2019-02-26T07:10:26.744Z,7.97
2019-02-26T07:13:24.656Z,7.67
2019-02-26T07:16:12.261Z,9.47
2019-02-26T07:19:01.227Z,7.60
2019-02-26T07:22:02.547Z,6.33
2019-02-26T07:25:11.207Z,14.33
2019-02-26T07:28:12.440Z,12.07
2019-02-26T07:31:03.281Z,13.20
2019-02-26T07:33:55.733Z,11.00
2019-02-26T07:36:45.619Z,10.73
2019-02-26T07:39:33.627Z,11.57
2019-02-26T07:42:21.557Z,12.63
2019-02-26T07:45:15.367Z,15.37
2019-02-26T07:48:04.953Z,10.57
2019-02-26T07:54:24.309Z,12.90
2019-02-26T07:56:55.127Z,23.03
2019-02-26T08:00:09.005Z,17.53
2019-02-26T08:03:04.846Z,20.53
2019-02-26T08:06:04.034Z,19.23
2019-02-26T08:12:06.480Z,24.57
2019-02-26T08:14:58.589Z,23.07
2019-02-26T08:17:50.252Z,25.23
2019-02-26T08:20:42.134Z,22.70
2019-02-26T08:23:30.698Z,21.40
2019-02-26T08:26:26.780Z,31.70
2019-02-26T08:29:15.737Z,61.17
2019-02-26T08:32:05.250Z,71.33
2019-02-26T08:34:53.685Z,71.00
2019-02-26T08:37:41.850Z,72.60
2019-02-26T08:40:30.078Z,70.07
2019-02-26T08:43:21.159Z,82.67
2019-02-26T08:46:11.671Z,83.77
2019-02-26T08:49:08.333Z,79.77
2019-02-26T08:51:51.827Z,78.53
2019-02-26T08:54:41.954Z,69.77
2019-02-26T08:57:51.232Z,74.03
2019-02-26T09:00:39.225Z,62.67
2019-02-26T09:03:27.219Z,61.70
2019-02-26T09:06:16.314Z,51.67
2019-02-26T09:09:07.055Z,49.77
2019-02-26T09:11:58.014Z,41.43
2019-02-26T09:14:47.097Z,40.30
2019-02-26T09:17:35.233Z,33.90
2019-02-26T09:20:24.489Z,32.90
2019-02-26T09:23:16.363Z,37.23
2019-02-26T09:26:05.138Z,27.03
2019-02-26T09:28:55.411Z,30.20
2019-02-26T09:31:44.024Z,30.03
2019-02-26T09:34:34.199Z,33.50
2019-02-26T09:37:22.591Z,30.90
2019-02-26T09:40:13.476Z,27.17
2019-02-26T09:43:01.943Z,24.77
2019-02-26T09:45:52.789Z,27.17
2019-02-26T09:48:43.362Z,22.50
2019-02-26T09:51:33.005Z,21.10
2019-02-26T09:54:22.558Z,26.97
2019-02-26T09:57:11.359Z,25.13
2019-02-26T10:00:00.231Z,21.47
2019-02-26T10:02:49.914Z,18.53
2019-02-26T10:05:39.018Z,15.40
2019-02-26T10:08:29.925Z,60.80
2019-02-26T10:11:18.530Z,40.40
2019-02-26T10:14:09.746Z,24.43
2019-02-26T10:16:58.198Z,22.73
2019-02-26T10:19:46.324Z,21.67
2019-02-26T10:22:36.161Z,18.70
2019-02-26T10:25:26.349Z,19.80
2019-02-26T10:28:16.623Z,21.00
2019-02-26T10:31:07.062Z,12.10
2019-02-26T10:33:54.757Z,12.53
2019-02-26T10:36:46.289Z,15.93
2019-02-26T10:39:33.250Z,13.47
2019-02-26T10:42:21.814Z,12.93
2019-02-26T10:45:12.370Z,12.60
2019-02-26T10:48:01.646Z,13.53
2019-02-26T10:50:51.825Z,16.53
2019-02-26T10:53:40.786Z,12.67
2019-02-26T10:56:30.781Z,17.23
2019-02-26T10:59:19.751Z,14.07
2019-02-26T11:02:08.910Z,14.97
2019-02-26T11:04:57.503Z,18.27
2019-02-26T11:07:45.861Z,14.87
2019-02-26T11:10:33.913Z,12.87
2019-02-26T11:13:23.444Z,13.43
2019-02-26T11:16:17.044Z,12.53
2019-02-26T11:19:04.350Z,17.10
2019-02-26T11:21:57.619Z,13.20
2019-02-26T11:24:43.687Z,14.77
2019-02-26T11:27:32.029Z,12.63
2019-02-26T11:30:23.690Z,11.00
2019-02-26T11:33:13.652Z,12.03
2019-02-26T11:36:03.090Z,15.77
2019-02-26T11:38:51.778Z,12.30
2019-02-26T11:41:40.426Z,11.90
2019-02-26T11:44:28.711Z,12.83
2019-02-26T11:47:18.342Z,10.40
2019-02-26T11:50:13.358Z,16.13
2019-02-26T11:52:44.055Z,11.67
2019-02-26T11:55:34.338Z,13.60
2019-02-26T11:58:24.271Z,11.30
2019-02-26T12:01:14.187Z,10.97
2019-02-26T12:04:05.532Z,11.80
2019-02-26T12:06:52.895Z,11.77
2019-02-26T12:09:43.282Z,10.47
2019-02-26T12:12:34.178Z,11.77
2019-02-26T12:15:22.604Z,12.27
2019-02-26T12:18:13.057Z,10.87
2019-02-26T12:21:03.487Z,11.50
2019-02-26T12:23:51.071Z,11.13
2019-02-26T12:26:39.343Z,11.30
2019-02-26T12:29:28.451Z,9.70
2019-02-26T12:32:19.002Z,10.10
2019-02-26T12:35:11.985Z,10.20
2019-02-26T12:38:16.954Z,13.57
2019-02-26T12:40:50.754Z,22.30
2019-02-26T12:43:43.111Z,23.70
2019-02-26T12:46:31.499Z,24.63
2019-02-26T12:49:22.388Z,17.23
2019-02-26T12:52:10.418Z,18.03
2019-02-26T12:55:00.482Z,12.87
2019-02-26T12:57:50.923Z,15.00
2019-02-26T13:00:42.008Z,16.13
2019-02-26T13:03:31.232Z,11.50
2019-02-26T13:06:22.817Z,21.93
2019-02-26T13:09:11.200Z,11.60
2019-02-26T13:12:02.892Z,12.13
2019-02-26T13:14:54.454Z,10.23
2019-02-26T13:17:40.980Z,11.93
2019-02-26T13:20:29.871Z,10.97
2019-02-26T13:23:20.520Z,10.73
2019-02-26T13:26:10.734Z,8.47
2019-02-26T13:29:00.510Z,9.57
2019-02-26T13:31:56.347Z,6.70
2019-02-26T13:34:38.153Z,7.73
2019-02-26T13:37:31.509Z,14.97
2019-02-26T13:40:19.263Z,9.27
2019-02-26T13:43:11.172Z,10.83
2019-02-26T13:45:59.635Z,8.80
2019-02-26T13:48:48.140Z,6.17
2019-02-26T13:51:36.567Z,7.87
2019-02-26T13:54:25.091Z,7.30
2019-02-26T13:57:13.706Z,6.47
2019-02-26T14:00:02.014Z,8.57
2019-02-26T14:02:51.236Z,6.77
2019-02-26T14:05:40.399Z,6.23
2019-02-26T14:08:28.830Z,8.27
2019-02-26T14:11:17.247Z,5.73
2019-02-26T14:14:05.879Z,11.60
2019-02-26T14:16:54.307Z,7.20
2019-02-26T14:19:42.735Z,7.30
2019-02-26T14:22:31.293Z,13.13
2019-02-26T14:25:19.817Z,7.13
2019-02-26T14:28:08.432Z,8.77
2019-02-26T14:30:57.105Z,11.90
2019-02-26T14:33:45.837Z,8.33
2019-02-26T14:36:34.223Z,8.00
2019-02-26T14:39:22.764Z,7.00
2019-02-26T14:42:11.138Z,7.00
2019-02-26T14:44:59.367Z,13.07
2019-02-26T14:47:48.185Z,14.53
2019-02-26T14:50:36.434Z,12.70
2019-02-26T14:53:24.884Z,15.17
2019-02-26T14:56:13.820Z,13.03
2019-02-26T14:59:02.088Z,21.50
2019-02-26T15:01:50.322Z,13.70
2019-02-26T15:04:38.800Z,17.30
2019-02-26T15:07:27.064Z,23.03
2019-02-26T15:10:15.334Z,15.20
2019-02-26T15:13:05.060Z,23.70
2019-02-26T15:15:53.357Z,25.13
2019-02-26T15:18:42.326Z,28.10
2019-02-26T15:21:30.715Z,19.27
2019-02-26T15:24:19.060Z,29.37
2019-02-26T15:27:07.521Z,28.17
2019-02-26T15:29:55.917Z,25.03
2019-02-26T15:32:44.433Z,23.07
2019-02-26T15:35:32.822Z,22.97
2019-02-26T15:38:20.923Z,32.83
2019-02-26T15:41:09.271Z,25.93
2019-02-26T15:43:57.959Z,22.20
2019-02-26T15:46:46.541Z,18.73
2019-02-26T15:49:35.777Z,20.90
2019-02-26T15:52:24.524Z,17.00
2019-02-26T15:55:15.129Z,27.90
2019-02-26T15:58:06.089Z,20.73
2019-02-26T16:00:53.666Z,22.13
2019-02-26T16:03:41.973Z,22.97
2019-02-26T16:06:30.497Z,16.33
2019-02-26T16:09:19.331Z,15.90
2019-02-26T16:12:08.333Z,13.90
2019-02-26T16:14:56.646Z,12.20
2019-02-26T16:17:45.269Z,18.93
2019-02-26T16:20:33.954Z,13.60
2019-02-26T16:23:04.747Z,12.13
2019-02-26T16:25:35.382Z,18.90
2019-02-26T16:28:06.083Z,10.70
2019-02-26T16:30:36.868Z,14.30
2019-02-26T16:33:07.600Z,11.43
2019-02-26T16:35:38.236Z,10.07
2019-02-26T16:38:09.070Z,14.17
2019-02-26T16:40:39.706Z,14.97
2019-02-26T16:43:17.242Z,12.70
2019-02-26T16:45:48.517Z,12.43
2019-02-26T16:48:21.447Z,17.67
2019-02-26T16:50:51.974Z,12.50
2019-02-26T16:53:22.624Z,11.13
2019-02-26T16:55:53.363Z,13.17
2019-02-26T16:58:24.157Z,8.33
2019-02-26T17:00:54.926Z,10.03
2019-02-26T17:03:25.867Z,15.10
2019-02-26T17:05:56.552Z,9.50
2019-02-26T17:08:27.213Z,13.50
2019-02-26T17:10:57.846Z,10.00
2019-02-26T17:13:28.507Z,9.73
2019-02-26T17:16:00.230Z,13.10
2019-02-26T17:18:30.892Z,8.40
2019-02-26T17:21:01.517Z,8.70
2019-02-26T17:23:32.258Z,8.87
2019-02-26T17:26:03.651Z,11.90
2019-02-26T17:28:34.455Z,7.20
2019-02-26T17:31:05.536Z,8.83
2019-02-26T17:33:36.271Z,11.50
2019-02-26T17:36:06.893Z,9.93
2019-02-26T17:38:37.692Z,7.30
2019-02-26T17:41:09.947Z,8.57
2019-02-26T17:43:40.749Z,8.90
2019-02-26T17:46:11.516Z,10.57
2019-02-26T17:48:43.711Z,10.17
2019-02-26T17:51:18.783Z,5.60
2019-02-26T17:53:47.089Z,10.67
2019-02-26T17:56:17.723Z,10.70
2019-02-26T17:58:49.474Z,11.83
2019-02-26T18:01:20.229Z,10.17
2019-02-26T18:03:51.047Z,14.53
2019-02-26T18:06:21.761Z,5.47
2019-02-26T18:08:56.273Z,8.57
2019-02-26T18:11:25.057Z,7.20
2019-02-26T18:13:57.850Z,8.10
2019-02-26T18:16:27.994Z,8.53
2019-02-26T18:18:59.583Z,8.00
2019-02-26T18:21:30.942Z,8.03
2019-02-26T18:24:19.555Z,7.77
2019-02-26T18:27:08.464Z,8.63
2019-02-26T18:29:57.096Z,7.87
2019-02-26T18:32:50.291Z,10.00
2019-02-26T18:35:35.708Z,8.57
2019-02-26T18:38:23.994Z,6.30
2019-02-26T18:41:12.960Z,10.60
2019-02-26T18:44:07.321Z,5.00
2019-02-26T18:46:56.439Z,5.17
2019-02-26T18:49:44.906Z,7.93
2019-02-26T18:52:33.287Z,5.73
2019-02-26T18:55:23.182Z,8.40
2019-02-26T18:58:13.758Z,9.70
2019-02-26T19:01:01.343Z,13.13
2019-02-26T19:03:50.238Z,11.20
2019-02-26T19:06:38.713Z,11.07
2019-02-26T19:09:27.808Z,8.30
2019-02-26T19:12:18.569Z,8.13
2019-02-26T19:15:12.597Z,8.77
2019-02-26T19:18:02.764Z,7.50
2019-02-26T19:20:55.131Z,5.60
2019-02-26T19:23:43.508Z,6.57
2019-02-26T19:26:32.189Z,5.93
2019-02-26T19:29:20.850Z,6.77
2019-02-26T19:32:09.401Z,7.63
2019-02-26T19:35:01.010Z,8.90
2019-02-26T19:37:52.735Z,7.10
2019-02-26T19:40:44.508Z,7.20
2019-02-26T19:43:33.067Z,7.70
2019-02-26T19:46:21.711Z,5.73
2019-02-26T19:49:10.606Z,5.87
2019-02-26T19:51:58.943Z,5.27
2019-02-26T19:54:47.009Z,8.63
2019-02-26T19:57:35.628Z,8.33
2019-02-26T20:00:24.835Z,7.10
2019-02-26T20:03:13.701Z,6.23
2019-02-26T20:06:02.062Z,7.27
2019-02-26T20:08:50.475Z,5.87
2019-02-26T20:11:39.606Z,10.20
2019-02-26T20:14:28.573Z,5.60
2019-02-26T20:17:17.166Z,6.33
2019-02-26T20:20:09.400Z,7.30
2019-02-26T20:22:57.928Z,5.37
2019-02-26T20:25:46.891Z,7.03
2019-02-26T20:28:36.459Z,6.87
2019-02-26T20:31:24.731Z,6.73
2019-02-26T20:34:13.243Z,11.93
2019-02-26T20:37:03.255Z,8.10
2019-02-26T20:39:51.794Z,6.90
2019-02-26T20:42:40.318Z,7.87
2019-02-26T20:45:28.542Z,7.27
2019-02-26T20:48:17.001Z,7.20
2019-02-26T20:51:05.599Z,10.93
2019-02-26T20:53:54.307Z,7.50
2019-02-26T20:56:44.778Z,7.30
2019-02-26T20:59:33.297Z,9.47
2019-02-26T21:02:22.624Z,10.87
2019-02-26T21:05:12.494Z,8.67
2019-02-26T21:08:00.740Z,10.23
2019-02-26T21:10:48.806Z,10.50
2019-02-26T21:13:36.930Z,7.90
2019-02-26T21:16:25.610Z,9.03
2019-02-26T21:19:14.280Z,7.60
2019-02-26T21:22:02.594Z,7.50
2019-02-26T21:24:50.940Z,7.87
2019-02-26T21:27:39.140Z,9.90
2019-02-26T21:30:27.567Z,16.50
2019-02-26T21:33:15.940Z,10.00
2019-02-26T21:36:04.068Z,10.13
2019-02-26T21:38:52.586Z,11.93
2019-02-26T21:41:41.098Z,9.07
2019-02-26T21:44:29.269Z,8.63
2019-02-26T21:47:17.573Z,8.40
2019-02-26T21:50:09.555Z,11.97
2019-02-26T21:52:59.633Z,13.80
2019-02-26T21:55:48.197Z,11.20
2019-02-26T21:58:36.739Z,10.60
2019-02-26T22:01:25.366Z,9.00
2019-02-26T22:04:14.353Z,8.50
2019-02-26T22:07:02.627Z,14.63
2019-02-26T22:09:51.217Z,12.30
2019-02-26T22:12:39.902Z,10.97
2019-02-26T22:15:28.191Z,9.57
2019-02-26T22:18:16.819Z,9.07
2019-02-26T22:21:05.521Z,10.03
2019-02-26T22:23:53.919Z,11.37
2019-02-26T22:26:42.330Z,7.33
2019-02-26T22:29:30.932Z,13.00
2019-02-26T22:32:20.276Z,9.20
2019-02-26T22:35:09.440Z,9.20
2019-02-26T22:37:57.961Z,7.87
2019-02-26T22:40:46.372Z,7.17
2019-02-26T22:43:35.059Z,7.87
2019-02-26T22:46:23.829Z,10.23
2019-02-26T22:49:12.310Z,7.30
2019-02-26T22:52:01.303Z,9.87
2019-02-26T22:54:49.641Z,8.90
2019-02-26T22:57:38.216Z,11.80
2019-02-26T23:00:49.641Z,9.90
2019-02-26T23:03:38.500Z,8.77
2019-02-26T23:06:26.847Z,8.73
2019-02-26T23:09:17.898Z,9.20
2019-02-26T23:12:07.841Z,8.70
2019-02-26T23:14:56.201Z,10.30
2019-02-26T23:17:46.390Z,7.13
2019-02-26T23:20:34.957Z,10.60
2019-02-26T23:23:23.166Z,9.80
2019-02-26T23:26:12.023Z,10.87
2019-02-26T23:29:00.629Z,10.20
2019-02-26T23:31:50.553Z,10.20
2019-02-26T23:34:38.944Z,9.60
2019-02-26T23:37:27.388Z,9.67
2019-02-26T23:40:16.957Z,10.63
2019-02-26T23:43:06.385Z,8.73
2019-02-26T23:45:57.090Z,9.77
2019-02-26T23:48:45.605Z,8.30
2019-02-26T23:51:35.047Z,10.97
2019-02-26T23:54:23.666Z,11.40
2019-02-26T23:57:12.554Z,7.50
